Time;durP1;ratioP1;P1;durP2;ratioP2;P2;SDS_P1;SDS_P2;PMS_P1;PMS_P2;Temp;Humidity;BMP_temperature;BMP_pressure;BME280_temperature;BME280_humidity;BME280_pressure;Samples;Min_cycle;Max_cycle;Signal;HPM_P1;HPM_P2
2021/10/01 00:01:14;;;;;;;13.80;6.30;;;;;;;;;;4933760;29;20398;-58
2021/10/01 00:03:40;;;;;;;14.43;6.30;;;;;;;;;;5014027;28;20039;-61
2021/10/01 00:06:06;;;;;;;15.40;6.38;;;;;;;;;;4932070;29;20125;-58
2021/10/01 00:08:32;;;;;;;14.95;6.53;;;;;;;;;;5014124;28;20028;-57
2021/10/01 00:10:59;;;;;;;18.98;6.60;;;;;;;;;;4931811;29;20064;-58
2021/10/01 00:13:25;;;;;;;16.25;7.10;;;;;;;;;;4931858;29;20063;-53
2021/10/01 00:15:51;;;;;;;16.15;6.50;;;;;;;;;;4931777;29;20524;-57
2021/10/01 00:18:17;;;;;;;13.77;6.45;;;;;;;;;;4931638;29;20031;-56
2021/10/01 00:20:43;;;;;;;18.95;6.60;;;;;;;;;;5014037;28;20035;-54
2021/10/01 00:23:10;;;;;;;14.40;6.20;;;;;;;;;;5013824;28;20035;-56
2021/10/01 00:25:36;;;;;;;14.52;6.38;;;;;;;;;;5013973;28;20032;-54
2021/10/01 00:28:02;;;;;;;15.80;6.97;;;;;;;;;;4931783;29;20111;-55
2021/10/01 00:30:28;;;;;;;19.33;10.18;;;;;;;;;;4931400;29;20081;-58
2021/10/01 00:32:54;;;;;;;17.15;8.48;;;;;;;;;;4935121;29;20028;-59
2021/10/01 00:35:20;;;;;;;15.95;6.70;;;;;;;;;;5017619;28;20023;-59
2021/10/01 00:37:47;;;;;;;17.65;6.60;;;;;;;;;;4934957;29;20028;-60
2021/10/01 00:40:13;;;;;;;13.95;5.93;;;;;;;;;;5017369;28;20063;-62
2021/10/01 00:42:39;;;;;;;15.80;6.13;;;;;;;;;;5017667;28;20032;-54
2021/10/01 00:45:06;;;;;;;15.20;6.38;;;;;;;;;;5017086;28;20027;-56
2021/10/01 00:47:31;;;;;;;14.63;6.00;;;;;;;;;;4934708;29;20102;-59
2021/10/01 00:49:57;;;;;;;14.13;5.90;;;;;;;;;;5017121;28;20563;-54
2021/10/01 00:52:24;;;;;;;13.32;5.90;;;;;;;;;;4934641;29;20037;-57
2021/10/01 00:54:50;;;;;;;16.15;6.10;;;;;;;;;;4934487;29;20028;-58
2021/10/01 00:57:16;;;;;;;13.60;6.05;;;;;;;;;;5017107;28;20073;-58
2021/10/01 00:59:42;;;;;;;13.57;6.03;;;;;;;;;;4934294;29;20476;-55
2021/10/01 01:02:08;;;;;;;14.70;6.43;;;;;;;;;;4934507;29;20042;-57
2021/10/01 01:04:34;;;;;;;13.98;6.10;;;;;;;;;;5016692;28;20081;-58
2021/10/01 01:07:17;;;;;;;15.65;6.03;;;;;;;;;;4934509;29;20058;-60
2021/10/01 01:09:46;;;;;;;16.05;6.35;;;;;;;;;;5016505;28;20027;-55
2021/10/01 01:12:12;;;;;;;13.32;6.05;;;;;;;;;;5016454;28;20085;-58
2021/10/01 01:14:54;;;;;;;16.88;6.85;;;;;;;;;;5016599;28;20430;-60
2021/10/01 01:17:23;;;;;;;15.82;5.88;;;;;;;;;;5016739;28;20024;-57
2021/10/01 01:19:55;;;;;;;12.73;5.65;;;;;;;;;;4934129;29;20515;-56
2021/10/01 01:22:36;;;;;;;14.85;6.00;;;;;;;;;;5016506;28;20051;-58
2021/10/01 01:25:11;;;;;;;14.43;5.75;;;;;;;;;;5016577;28;20073;-57
2021/10/01 01:27:55;;;;;;;15.80;5.80;;;;;;;;;;4934252;29;20023;-58
2021/10/01 01:30:22;;;;;;;22.15;7.45;;;;;;;;;;5016270;28;20497;-56
2021/10/01 01:32:49;;;;;;;15.88;5.63;;;;;;;;;;5016398;28;20073;-57
2021/10/01 01:35:19;;;;;;;14.95;5.90;;;;;;;;;;5016308;28;20024;-60
2021/10/01 01:37:47;;;;;;;14.15;6.40;;;;;;;;;;5016203;28;20035;-58
2021/10/01 01:40:15;;;;;;;16.75;5.82;;;;;;;;;;5016273;28;20035;-60
2021/10/01 01:42:42;;;;;;;14.75;5.80;;;;;;;;;;4932837;29;20384;-60
2021/10/01 01:45:09;;;;;;;12.63;5.80;;;;;;;;;;5016097;28;20040;-56
2021/10/01 01:47:36;;;;;;;17.58;6.00;;;;;;;;;;4933796;29;20682;-56
2021/10/01 01:50:02;;;;;;;12.30;5.90;;;;;;;;;;4933420;29;20039;-55
2021/10/01 01:52:28;;;;;;;13.07;5.60;;;;;;;;;;4933818;29;20043;-57
2021/10/01 01:54:55;;;;;;;15.90;5.50;;;;;;;;;;4933570;29;20023;-57
2021/10/01 01:57:23;;;;;;;20.10;5.95;;;;;;;;;;5015988;28;20051;-56
2021/10/01 01:59:49;;;;;;;14.02;5.82;;;;;;;;;;4933551;29;20024;-56
2021/10/01 02:02:16;;;;;;;15.70;5.88;;;;;;;;;;4933781;29;20038;-58
2021/10/01 02:04:42;;;;;;;14.27;5.78;;;;;;;;;;5015824;28;20094;-60
2021/10/01 02:07:09;;;;;;;13.18;5.75;;;;;;;;;;4933724;29;20063;-58
2021/10/01 02:09:36;;;;;;;15.52;6.40;;;;;;;;;;4933268;29;20035;-56
2021/10/01 02:12:02;;;;;;;12.68;5.88;;;;;;;;;;5015912;28;20124;-55
2021/10/01 02:14:29;;;;;;;13.40;6.28;;;;;;;;;;4933503;29;20539;-58
2021/10/01 02:16:56;;;;;;;13.30;5.90;;;;;;;;;;4933818;29;20105;-58
2021/10/01 02:19:23;;;;;;;12.25;5.82;;;;;;;;;;5016134;28;20061;-59
2021/10/01 02:21:50;;;;;;;17.75;5.90;;;;;;;;;;5015901;28;20078;-56
2021/10/01 02:24:16;;;;;;;15.77;5.95;;;;;;;;;;4933619;29;20027;-54
2021/10/01 02:26:48;;;;;;;15.93;5.97;;;;;;;;;;5015847;28;20090;-55
2021/10/01 02:29:23;;;;;;;13.45;5.38;;;;;;;;;;4933237;29;20034;-58
2021/10/01 02:32:01;;;;;;;15.07;5.57;;;;;;;;;;4933484;29;20182;-59
2021/10/01 02:34:33;;;;;;;14.55;6.22;;;;;;;;;;4933538;29;20031;-58
2021/10/01 02:36:59;;;;;;;15.10;5.90;;;;;;;;;;5015735;28;20028;-58
2021/10/01 02:39:25;;;;;;;14.20;5.65;;;;;;;;;;4933007;29;20054;-57
2021/10/01 02:41:51;;;;;;;13.18;5.70;;;;;;;;;;5015492;28;20032;-58
2021/10/01 02:44:17;;;;;;;13.57;5.82;;;;;;;;;;4933591;29;20093;-55
2021/10/01 02:46:43;;;;;;;16.10;6.30;;;;;;;;;;5015258;28;20487;-56
2021/10/01 02:49:09;;;;;;;21.25;6.75;;;;;;;;;;5014642;28;20035;-56
2021/10/01 02:51:37;;;;;;;14.20;5.60;;;;;;;;;;4933040;29;20035;-58
2021/10/01 02:54:08;;;;;;;13.68;5.60;;;;;;;;;;5014969;28;20038;-60
2021/10/01 02:56:38;;;;;;;13.90;5.55;;;;;;;;;;5014856;28;20028;-56
2021/10/01 02:59:04;;;;;;;12.98;5.90;;;;;;;;;;5014607;28;20028;-57
2021/10/01 03:01:31;;;;;;;13.77;5.70;;;;;;;;;;4932851;29;20032;-57
2021/10/01 03:04:07;;;;;;;12.73;5.50;;;;;;;;;;4932573;29;20051;-59
2021/10/01 03:06:34;;;;;;;15.18;6.00;;;;;;;;;;5014678;28;20055;-53
2021/10/01 03:09:02;;;;;;;16.05;5.60;;;;;;;;;;4932408;29;20085;-58
2021/10/01 03:11:29;;;;;;;14.40;5.80;;;;;;;;;;4932565;29;20028;-57
2021/10/01 03:13:55;;;;;;;13.18;5.63;;;;;;;;;;5014426;28;20031;-57
2021/10/01 03:16:22;;;;;;;13.77;5.78;;;;;;;;;;4932565;29;20023;-54
2021/10/01 03:18:48;;;;;;;13.85;5.85;;;;;;;;;;4932307;29;20040;-58
2021/10/01 03:21:16;;;;;;;13.20;5.57;;;;;;;;;;4932438;29;20442;-53
2021/10/01 03:23:43;;;;;;;15.07;5.95;;;;;;;;;;4932366;29;20375;-57
2021/10/01 03:26:09;;;;;;;13.43;5.40;;;;;;;;;;4931240;29;20402;-56
2021/10/01 03:28:37;;;;;;;12.65;5.70;;;;;;;;;;4932011;29;20114;-59
2021/10/01 03:31:03;;;;;;;15.45;6.07;;;;;;;;;;5014240;28;20472;-54
2021/10/01 03:33:29;;;;;;;12.48;5.57;;;;;;;;;;5014006;28;20118;-56
2021/10/01 03:35:55;;;;;;;13.55;6.88;;;;;;;;;;4932062;29;20024;-54
2021/10/01 03:38:23;;;;;;;13.30;5.63;;;;;;;;;;4932127;28;20081;-58
2021/10/01 03:40:49;;;;;;;16.83;6.07;;;;;;;;;;5013892;28;20036;-54
2021/10/01 03:43:15;;;;;;;14.00;6.15;;;;;;;;;;5013959;28;20042;-58
2021/10/01 03:45:42;;;;;;;15.18;5.80;;;;;;;;;;5014278;28;20050;-58
2021/10/01 03:48:08;;;;;;;13.63;5.95;;;;;;;;;;5014118;28;20069;-60
2021/10/01 03:50:35;;;;;;;15.38;5.95;;;;;;;;;;5013749;28;20040;-59
2021/10/01 03:53:01;;;;;;;13.38;5.97;;;;;;;;;;5013837;28;20123;-58
2021/10/01 03:55:27;;;;;;;13.77;6.07;;;;;;;;;;4932149;29;20024;-59
2021/10/01 03:57:53;;;;;;;13.60;6.10;;;;;;;;;;4931973;29;20078;-58
2021/10/01 04:00:19;;;;;;;14.88;5.68;;;;;;;;;;4931853;29;20558;-60
2021/10/01 04:02:45;;;;;;;16.40;5.75;;;;;;;;;;5014377;28;20407;-58
2021/10/01 04:05:12;;;;;;;13.98;5.80;;;;;;;;;;4932036;29;20506;-58
2021/10/01 04:07:38;;;;;;;14.95;5.90;;;;;;;;;;4934918;29;20042;-57
2021/10/01 04:10:05;;;;;;;15.30;5.75;;;;;;;;;;4934980;29;20032;-58
2021/10/01 04:12:31;;;;;;;17.02;6.40;;;;;;;;;;4935188;29;20031;-55
2021/10/01 04:14:57;;;;;;;14.07;6.03;;;;;;;;;;4935198;29;20024;-58
2021/10/01 04:17:23;;;;;;;14.27;6.00;;;;;;;;;;5018233;28;20054;-57
2021/10/01 04:19:49;;;;;;;15.05;6.00;;;;;;;;;;5017468;28;20055;-58
2021/10/01 04:22:16;;;;;;;15.73;6.30;;;;;;;;;;4934961;29;20024;-59
2021/10/01 04:24:42;;;;;;;12.32;5.85;;;;;;;;;;5017233;28;20020;-59
2021/10/01 04:27:08;;;;;;;20.83;6.70;;;;;;;;;;4934872;29;20027;-58
2021/10/01 04:29:34;;;;;;;13.15;6.07;;;;;;;;;;4934758;29;20066;-57
2021/10/01 04:32:04;;;;;;;13.98;6.35;;;;;;;;;;5017389;28;20077;-60
2021/10/01 04:34:33;;;;;;;15.07;5.78;;;;;;;;;;4934922;29;20028;-58
2021/10/01 04:36:59;;;;;;;14.65;6.30;;;;;;;;;;4935077;29;20103;-59
2021/10/01 04:39:25;;;;;;;15.52;6.63;;;;;;;;;;4935563;29;20028;-59
2021/10/01 04:41:51;;;;;;;14.48;6.50;;;;;;;;;;4936346;29;20039;-60
2021/10/01 04:44:18;;;;;;;15.43;6.13;;;;;;;;;;5018648;28;20403;-59
2021/10/01 04:46:44;;;;;;;14.60;6.43;;;;;;;;;;4934800;29;20488;-58
2021/10/01 04:49:11;;;;;;;13.13;6.35;;;;;;;;;;4934391;29;20028;-58
2021/10/01 04:51:37;;;;;;;13.77;6.47;;;;;;;;;;4934676;29;20036;-59
2021/10/01 04:54:03;;;;;;;18.25;6.78;;;;;;;;;;4934630;29;20031;-59
2021/10/01 04:56:29;;;;;;;15.63;6.53;;;;;;;;;;4934674;29;20020;-58
2021/10/01 04:58:55;;;;;;;13.85;6.95;;;;;;;;;;5016765;28;20039;-60
2021/10/01 05:01:21;;;;;;;14.43;6.32;;;;;;;;;;4934330;29;20081;-62
2021/10/01 05:06:17;;;;;;;13.70;6.00;;;;;;;;;;4968574;28;20065;-63
2021/10/01 05:08:43;;;;;;;16.60;6.97;;;;;;;;;;4952910;28;20451;-63
2021/10/01 05:11:09;;;;;;;14.25;6.32;;;;;;;;;;4953835;28;20054;-59
2021/10/01 05:13:35;;;;;;;12.38;6.03;;;;;;;;;;4971334;28;20386;-62
2021/10/01 05:16:03;;;;;;;16.85;6.60;;;;;;;;;;4953495;28;20069;-60
2021/10/01 05:18:29;;;;;;;15.35;6.10;;;;;;;;;;4953441;28;20031;-60
2021/10/01 05:21:02;;;;;;;15.80;6.70;;;;;;;;;;4953721;28;20135;-62
2021/10/01 05:23:29;;;;;;;15.43;6.50;;;;;;;;;;4971217;28;20034;-62
2021/10/01 05:25:55;;;;;;;13.57;6.00;;;;;;;;;;4970675;28;20106;-62
2021/10/01 05:28:21;;;;;;;14.07;6.07;;;;;;;;;;4970842;28;20085;-61
2021/10/01 05:30:47;;;;;;;17.30;6.30;;;;;;;;;;4953255;28;20041;-63
2021/10/01 05:33:14;;;;;;;18.55;8.13;;;;;;;;;;4953709;28;20023;-62
2021/10/01 05:35:43;;;;;;;13.80;6.40;;;;;;;;;;4970805;28;20061;-62
2021/10/01 05:38:10;;;;;;;13.98;6.10;;;;;;;;;;4970946;28;20023;-60
2021/10/01 05:40:36;;;;;;;14.60;6.05;;;;;;;;;;4970912;28;20034;-61
2021/10/01 05:43:03;;;;;;;18.42;6.40;;;;;;;;;;4970750;28;20107;-63
2021/10/01 05:45:29;;;;;;;15.48;6.20;;;;;;;;;;4970426;28;20035;-62
2021/10/01 05:47:55;;;;;;;13.35;6.10;;;;;;;;;;4953008;28;20092;-62
2021/10/01 05:50:23;;;;;;;15.23;6.50;;;;;;;;;;4970366;28;20026;-62
2021/10/01 05:55:15;;;;;;;19.52;6.60;;;;;;;;;;4970441;28;20027;-62
2021/10/01 05:57:43;;;;;;;14.85;6.80;;;;;;;;;;4970489;28;20503;-62
2021/10/01 06:00:09;;;;;;;16.08;6.25;;;;;;;;;;4970212;28;20105;-62
2021/10/01 06:02:35;;;;;;;15.18;6.60;;;;;;;;;;4970703;28;20037;-61
2021/10/01 06:05:01;;;;;;;14.15;6.63;;;;;;;;;;4970319;28;20126;-62
2021/10/01 06:07:27;;;;;;;17.80;6.65;;;;;;;;;;4970383;28;20029;-62
2021/10/01 06:09:53;;;;;;;19.35;6.90;;;;;;;;;;4967999;28;20023;-61
2021/10/01 06:12:19;;;;;;;17.23;7.28;;;;;;;;;;5002524;28;20555;-62
2021/10/01 06:14:45;;;;;;;16.77;6.22;;;;;;;;;;4969918;28;20026;-61
2021/10/01 06:17:15;;;;;;;15.57;6.63;;;;;;;;;;4970484;28;20025;-62
2021/10/01 06:19:43;;;;;;;15.77;6.70;;;;;;;;;;4956367;28;20541;-62
2021/10/01 06:22:09;;;;;;;19.33;6.82;;;;;;;;;;4951234;29;20069;-60
2021/10/01 06:24:35;;;;;;;14.73;6.63;;;;;;;;;;4950875;28;20024;-62
2021/10/01 06:27:01;;;;;;;19.40;7.53;;;;;;;;;;4937633;28;20026;-62
2021/10/01 06:29:27;;;;;;;15.80;7.35;;;;;;;;;;4969011;28;20042;-62
2021/10/01 06:31:53;;;;;;;15.35;7.38;;;;;;;;;;4952650;28;20027;-61
2021/10/01 06:34:20;;;;;;;17.13;7.18;;;;;;;;;;4969920;28;20026;-62
2021/10/01 06:36:46;;;;;;;14.60;7.20;;;;;;;;;;4970122;28;20386;-61
2021/10/01 06:39:12;;;;;;;14.55;6.72;;;;;;;;;;4952672;28;20111;-61
2021/10/01 06:41:39;;;;;;;15.30;7.57;;;;;;;;;;4969881;28;20022;-62
2021/10/01 06:44:07;;;;;;;14.00;7.23;;;;;;;;;;4966022;28;20022;-61
2021/10/01 06:46:41;;;;;;;16.42;6.95;;;;;;;;;;4950587;29;20364;-59
2021/10/01 07:22:59;;;;;;;16.48;8.68;;;;;;;;;;4969556;28;20090;-62
2021/10/01 08:19:37;;;;;;;17.10;10.13;;;;;;;;;;4968682;28;20506;-58
2021/10/01 08:22:04;;;;;;;16.80;9.32;;;;;;;;;;4968837;28;20038;-56
2021/10/01 08:24:31;;;;;;;14.70;9.10;;;;;;;;;;4968476;28;20135;-60
2021/10/01 08:26:57;;;;;;;14.15;8.70;;;;;;;;;;4968141;28;20031;-59
2021/10/01 08:29:23;;;;;;;15.30;9.02;;;;;;;;;;4968301;28;20026;-59
2021/10/01 08:31:49;;;;;;;16.13;9.30;;;;;;;;;;4968259;28;20033;-60
2021/10/01 08:34:17;;;;;;;16.05;9.38;;;;;;;;;;4968329;28;20019;-61
2021/10/01 08:36:43;;;;;;;17.98;9.60;;;;;;;;;;4968367;28;20038;-61
2021/10/01 08:39:09;;;;;;;16.83;9.80;;;;;;;;;;4968129;28;20067;-61
2021/10/01 08:41:36;;;;;;;18.58;9.82;;;;;;;;;;4968245;28;20113;-61
2021/10/01 08:44:02;;;;;;;14.95;9.30;;;;;;;;;;4951190;28;20118;-61
2021/10/01 08:46:30;;;;;;;14.70;9.30;;;;;;;;;;4951232;28;20027;-61
2021/10/01 08:48:58;;;;;;;17.02;9.82;;;;;;;;;;4968185;28;20509;-58
2021/10/01 08:51:25;;;;;;;16.60;9.80;;;;;;;;;;4968469;28;20118;-60
2021/10/01 08:53:52;;;;;;;20.85;10.18;;;;;;;;;;4954365;28;20042;-60
2021/10/01 08:56:19;;;;;;;17.48;9.75;;;;;;;;;;4971430;28;20098;-61
2021/10/01 08:58:46;;;;;;;16.35;9.65;;;;;;;;;;4970678;28;20402;-61
2021/10/01 09:01:12;;;;;;;16.52;9.60;;;;;;;;;;4971472;28;20030;-61
2021/10/01 09:03:42;;;;;;;18.58;9.70;;;;;;;;;;4954169;28;20530;-61
2021/10/01 09:06:08;;;;;;;15.98;9.30;;;;;;;;;;4971188;28;20046;-60
2021/10/01 09:08:47;;;;;;;16.00;9.52;;;;;;;;;;4971177;28;20106;-61
2021/10/01 09:11:14;;;;;;;17.48;9.63;;;;;;;;;;4953884;28;20137;-61
2021/10/01 09:13:41;;;;;;;17.10;9.15;;;;;;;;;;4971375;28;20050;-60
2021/10/01 09:16:08;;;;;;;17.55;9.73;;;;;;;;;;4971454;28;20030;-61
2021/10/01 09:18:36;;;;;;;16.63;9.38;;;;;;;;;;4970976;28;20054;-61
2021/10/01 09:21:11;;;;;;;15.43;9.90;;;;;;;;;;4971205;28;20030;-61
2021/10/01 09:23:45;;;;;;;16.63;9.85;;;;;;;;;;4971083;28;20110;-61
2021/10/01 09:26:18;;;;;;;16.55;10.13;;;;;;;;;;4970941;28;20030;-61
2021/10/01 09:28:45;;;;;;;17.50;10.23;;;;;;;;;;4970755;28;20129;-61
2021/10/01 09:31:29;;;;;;;16.90;10.20;;;;;;;;;;4970874;28;20022;-61
2021/10/01 09:33:55;;;;;;;16.23;9.77;;;;;;;;;;4970910;28;20029;-61
2021/10/01 09:36:21;;;;;;;15.65;9.82;;;;;;;;;;4970871;28;20031;-61
2021/10/01 09:38:47;;;;;;;15.95;10.63;;;;;;;;;;4953078;28;20027;-61
2021/10/01 09:41:14;;;;;;;17.45;10.75;;;;;;;;;;4953412;28;20023;-61
2021/10/01 09:43:41;;;;;;;15.35;9.80;;;;;;;;;;4970353;28;20031;-61
2021/10/01 09:46:13;;;;;;;16.35;10.15;;;;;;;;;;4970923;28;20065;-61
2021/10/01 09:48:40;;;;;;;18.25;10.98;;;;;;;;;;4970765;28;20092;-61
2021/10/01 09:51:10;;;;;;;18.60;10.82;;;;;;;;;;4953324;28;20043;-61
2021/10/01 09:53:47;;;;;;;16.50;10.23;;;;;;;;;;4970769;28;20023;-61
2021/10/01 09:56:25;;;;;;;16.35;10.60;;;;;;;;;;4970524;28;20023;-61
2021/10/01 09:59:03;;;;;;;15.60;10.98;;;;;;;;;;4970106;28;20034;-61
2021/10/01 10:01:29;;;;;;;18.10;10.65;;;;;;;;;;4970426;28;20049;-61
2021/10/01 10:03:55;;;;;;;16.60;11.55;;;;;;;;;;4969443;28;20027;-61
2021/10/01 10:06:21;;;;;;;17.20;10.85;;;;;;;;;;4970116;28;20027;-61
2021/10/01 10:08:47;;;;;;;18.65;11.00;;;;;;;;;;4970126;28;20038;-61
2021/10/01 10:11:14;;;;;;;19.92;10.77;;;;;;;;;;4969972;28;20031;-61
2021/10/01 10:13:54;;;;;;;18.27;11.48;;;;;;;;;;4952626;28;20487;-62
2021/10/01 10:16:21;;;;;;;16.48;10.90;;;;;;;;;;4969773;28;20120;-61
2021/10/01 10:18:50;;;;;;;17.25;11.05;;;;;;;;;;4969661;28;20023;-62
2021/10/01 10:21:16;;;;;;;16.67;11.32;;;;;;;;;;4970247;28;20486;-61
2021/10/01 10:23:42;;;;;;;16.30;10.95;;;;;;;;;;4969940;28;20035;-61
2021/10/01 10:26:08;;;;;;;17.67;10.75;;;;;;;;;;4969990;28;20031;-60
2021/10/01 10:28:35;;;;;;;17.35;10.63;;;;;;;;;;4969272;28;20084;-63
2021/10/01 10:31:01;;;;;;;16.55;11.30;;;;;;;;;;4969805;28;20084;-61
2021/10/01 10:33:39;;;;;;;17.17;10.93;;;;;;;;;;4969663;28;20023;-61
2021/10/01 10:36:24;;;;;;;16.42;11.18;;;;;;;;;;4952749;28;20054;-61
2021/10/01 10:38:50;;;;;;;18.75;10.93;;;;;;;;;;4969722;28;20455;-62
2021/10/01 10:41:23;;;;;;;16.63;10.73;;;;;;;;;;4952039;28;20043;-60
2021/10/01 10:43:50;;;;;;;15.13;10.82;;;;;;;;;;4969354;28;20084;-62
2021/10/01 10:46:39;;;;;;;17.75;10.98;;;;;;;;;;4970066;28;20048;-61
2021/10/01 10:49:17;;;;;;;19.83;11.68;;;;;;;;;;4959533;28;20043;-60
2021/10/01 10:51:58;;;;;;;18.80;11.80;;;;;;;;;;4969608;28;20027;-61
2021/10/01 10:54:28;;;;;;;16.05;11.35;;;;;;;;;;4969072;28;20039;-62
2021/10/01 10:57:13;;;;;;;17.08;11.93;;;;;;;;;;4969704;28;20039;-62
2021/10/01 10:59:39;;;;;;;16.02;11.30;;;;;;;;;;4952000;28;20041;-62
2021/10/01 11:02:25;;;;;;;15.95;11.52;;;;;;;;;;4969583;28;20084;-62
2021/10/01 11:04:52;;;;;;;16.93;11.20;;;;;;;;;;4974580;22;20088;-60
2021/10/01 11:07:37;;;;;;;16.33;11.43;;;;;;;;;;4949928;28;20035;-62
2021/10/01 11:10:21;;;;;;;17.38;11.30;;;;;;;;;;4949590;29;20027;-61
2021/10/01 11:12:47;;;;;;;16.98;12.00;;;;;;;;;;5052265;28;20031;-60
2021/10/01 11:15:14;;;;;;;16.02;11.20;;;;;;;;;;4969650;28;20042;-61
2021/10/01 11:17:41;;;;;;;16.77;11.15;;;;;;;;;;4970095;28;20395;-60
2021/10/01 11:20:07;;;;;;;18.05;10.75;;;;;;;;;;4970462;28;20023;-61
2021/10/01 11:22:37;;;;;;;16.48;10.80;;;;;;;;;;4970001;28;20094;-61
2021/10/01 11:25:05;;;;;;;15.55;10.45;;;;;;;;;;4620014;28;10000256;-60
2021/10/01 11:27:32;;;;;;;17.08;11.10;;;;;;;;;;4947358;28;20054;-60
2021/10/01 11:29:58;;;;;;;16.65;10.95;;;;;;;;;;4946549;29;20046;-60
2021/10/01 11:32:26;;;;;;;17.35;11.15;;;;;;;;;;5013909;28;20056;-61
2021/10/01 11:34:53;;;;;;;16.20;11.32;;;;;;;;;;4948266;28;20321;-58
2021/10/01 11:37:27;;;;;;;16.60;11.45;;;;;;;;;;5013653;28;20032;-58
2021/10/01 11:39:55;;;;;;;16.48;11.68;;;;;;;;;;4948756;28;20390;-61
2021/10/01 11:42:28;;;;;;;16.13;11.30;;;;;;;;;;5015660;28;20034;-60
2021/10/01 11:44:56;;;;;;;18.25;11.50;;;;;;;;;;4949701;28;20066;-61
2021/10/01 11:47:22;;;;;;;18.25;11.70;;;;;;;;;;5014519;28;20101;-61
2021/10/01 11:49:56;;;;;;;16.92;12.10;;;;;;;;;;5013800;28;20046;-61
2021/10/01 11:52:22;;;;;;;16.35;11.55;;;;;;;;;;4948130;28;20114;-60
2021/10/01 11:54:57;;;;;;;21.15;11.68;;;;;;;;;;4948282;28;20031;-60
2021/10/01 11:57:23;;;;;;;18.38;12.40;;;;;;;;;;5013708;28;20032;-60
2021/10/01 11:59:51;;;;;;;19.52;11.95;;;;;;;;;;5013338;28;20031;-60
2021/10/01 12:02:29;;;;;;;18.77;11.87;;;;;;;;;;4948059;28;20031;-59
2021/10/01 12:04:55;;;;;;;15.82;11.48;;;;;;;;;;5013549;28;20782;-60
2021/10/01 12:07:21;;;;;;;18.15;11.57;;;;;;;;;;5013854;28;20074;-61
2021/10/01 12:10:07;;;;;;;16.17;11.40;;;;;;;;;;5013853;28;20121;-61
2021/10/01 12:12:33;;;;;;;15.43;11.27;;;;;;;;;;4964286;28;20509;-60
2021/10/01 12:14:59;;;;;;;17.88;11.38;;;;;;;;;;4966380;28;20023;-60
2021/10/01 12:17:25;;;;;;;16.70;11.68;;;;;;;;;;5033091;28;20031;-61
2021/10/01 12:19:51;;;;;;;18.17;11.30;;;;;;;;;;4966568;28;20027;-60
2021/10/01 12:22:17;;;;;;;17.02;11.30;;;;;;;;;;4965865;28;20767;-61
2021/10/01 12:24:51;;;;;;;16.90;11.32;;;;;;;;;;4975386;28;20084;-61
2021/10/01 12:27:18;;;;;;;16.33;11.90;;;;;;;;;;5031689;28;20033;-61
2021/10/01 12:29:45;;;;;;;17.27;11.38;;;;;;;;;;5034497;28;20032;-61
2021/10/01 12:32:11;;;;;;;16.80;11.55;;;;;;;;;;5052098;28;20089;-61
2021/10/01 12:34:43;;;;;;;18.38;11.85;;;;;;;;;;5034487;28;20390;-60
2021/10/01 12:37:11;;;;;;;16.30;11.55;;;;;;;;;;5033472;28;20108;-61
2021/10/01 12:39:37;;;;;;;16.17;11.60;;;;;;;;;;5051306;28;20032;-61
2021/10/01 12:42:22;;;;;;;18.05;12.20;;;;;;;;;;5051695;28;20025;-61
2021/10/01 12:45:07;;;;;;;15.90;11.48;;;;;;;;;;5052032;28;20044;-62
2021/10/01 12:47:37;;;;;;;17.33;12.20;;;;;;;;;;5052936;28;20435;-62
2021/10/01 12:50:08;;;;;;;18.10;11.68;;;;;;;;;;5018558;28;20445;-64
2021/10/01 12:52:35;;;;;;;16.17;12.00;;;;;;;;;;5019358;28;20031;-63
2021/10/01 12:55:06;;;;;;;18.25;11.82;;;;;;;;;;4952740;28;20050;-58
2021/10/01 12:57:33;;;;;;;16.05;12.00;;;;;;;;;;4952827;28;20483;-60
2021/10/01 12:59:59;;;;;;;17.45;12.48;;;;;;;;;;4952720;29;20034;-59
2021/10/01 13:02:31;;;;;;;16.95;11.75;;;;;;;;;;4952956;28;20027;-60
2021/10/01 13:05:08;;;;;;;18.27;11.40;;;;;;;;;;5019047;28;20031;-61
2021/10/01 13:07:38;;;;;;;17.15;11.68;;;;;;;;;;4952510;28;20514;-59
2021/10/01 13:10:13;;;;;;;15.98;11.80;;;;;;;;;;4951902;28;20023;-63
2021/10/01 13:12:59;;;;;;;15.40;11.73;;;;;;;;;;4969310;28;20054;-61
2021/10/01 13:15:27;;;;;;;16.17;12.18;;;;;;;;;;4971911;28;20025;-61
2021/10/01 13:18:05;;;;;;;18.88;12.52;;;;;;;;;;4971645;28;20042;-56
2021/10/01 13:20:32;;;;;;;17.17;11.45;;;;;;;;;;4971426;28;20030;-60
2021/10/01 13:23:06;;;;;;;17.17;11.70;;;;;;;;;;4971418;28;20031;-59
2021/10/01 13:25:37;;;;;;;17.08;11.73;;;;;;;;;;4972275;28;20038;-61
2021/10/01 13:28:05;;;;;;;15.43;11.65;;;;;;;;;;4971723;28;20402;-61
2021/10/01 13:30:31;;;;;;;15.43;11.15;;;;;;;;;;5025144;28;20059;-60
2021/10/01 13:32:57;;;;;;;16.48;11.15;;;;;;;;;;4951766;28;20059;-58
2021/10/01 13:35:23;;;;;;;16.08;11.27;;;;;;;;;;4952096;28;20020;-62
2021/10/01 13:37:50;;;;;;;17.20;11.55;;;;;;;;;;5017506;28;20491;-61
2021/10/01 13:40:17;;;;;;;16.33;11.60;;;;;;;;;;4951494;28;20028;-59
2021/10/01 13:42:43;;;;;;;16.25;11.63;;;;;;;;;;4951410;29;20028;-61
2021/10/01 13:45:09;;;;;;;16.15;11.80;;;;;;;;;;4951697;28;20027;-61
2021/10/01 13:47:36;;;;;;;16.35;11.57;;;;;;;;;;4951717;29;20038;-61
2021/10/01 13:50:04;;;;;;;15.98;11.50;;;;;;;;;;4951178;29;20026;-60
2021/10/01 13:52:30;;;;;;;17.75;12.63;;;;;;;;;;5017368;28;20027;-61
2021/10/01 13:54:56;;;;;;;15.98;11.30;;;;;;;;;;4951411;28;20031;-59
2021/10/01 13:57:22;;;;;;;17.58;11.90;;;;;;;;;;4951571;29;20388;-60
2021/10/01 13:59:51;;;;;;;15.07;11.07;;;;;;;;;;4610470;28;9999792;-61
2021/10/01 14:02:17;;;;;;;17.65;12.18;;;;;;;;;;4946622;28;20031;-61
2021/10/01 14:04:43;;;;;;;14.93;11.00;;;;;;;;;;5015910;28;20031;-60
2021/10/01 14:07:09;;;;;;;17.48;11.20;;;;;;;;;;4949048;28;20039;-60
2021/10/01 14:09:35;;;;;;;17.08;11.25;;;;;;;;;;4949192;29;20391;-61
2021/10/01 14:12:01;;;;;;;17.58;10.80;;;;;;;;;;5027530;28;20027;-61
2021/10/01 14:14:27;;;;;;;16.42;11.25;;;;;;;;;;5035444;28;20023;-59
2021/10/01 14:16:52;;;;;;;17.42;12.02;;;;;;;;;;5035297;28;20197;-61
2021/10/01 14:19:18;;;;;;;18.13;11.07;;;;;;;;;;4968267;28;20023;-61
2021/10/01 14:21:45;;;;;;;17.63;10.90;;;;;;;;;;4968475;28;20506;-61
2021/10/01 14:24:11;;;;;;;15.90;11.10;;;;;;;;;;4967894;28;20475;-61
2021/10/01 14:26:37;;;;;;;16.85;11.18;;;;;;;;;;4967893;28;20039;-61
2021/10/01 14:29:04;;;;;;;17.40;11.57;;;;;;;;;;5035349;28;20027;-63
2021/10/01 14:31:31;;;;;;;18.48;11.15;;;;;;;;;;4971248;28;20076;-63
2021/10/01 14:33:57;;;;;;;15.65;10.55;;;;;;;;;;5037938;28;20038;-63
2021/10/01 14:36:23;;;;;;;16.92;10.60;;;;;;;;;;4970473;28;20168;-63
2021/10/01 14:38:49;;;;;;;16.50;10.88;;;;;;;;;;4970847;28;20407;-61
2021/10/01 14:41:15;;;;;;;15.43;11.05;;;;;;;;;;4970516;28;20359;-63
2021/10/01 14:43:42;;;;;;;14.93;10.60;;;;;;;;;;4971189;28;20027;-64
2021/10/01 14:46:08;;;;;;;15.00;10.90;;;;;;;;;;4970373;28;20042;-63
2021/10/01 14:48:36;;;;;;;16.23;10.75;;;;;;;;;;4970274;28;20038;-64
2021/10/01 14:51:03;;;;;;;15.67;10.97;;;;;;;;;;4969830;28;20414;-63
2021/10/01 14:53:29;;;;;;;18.10;11.02;;;;;;;;;;4970473;28;20499;-64
2021/10/01 14:55:55;;;;;;;16.25;10.95;;;;;;;;;;5037889;28;20023;-64
2021/10/01 14:58:21;;;;;;;17.40;11.25;;;;;;;;;;5002193;28;20106;-63
2021/10/01 15:00:47;;;;;;;16.23;10.77;;;;;;;;;;4949230;28;20092;-63
2021/10/01 15:03:14;;;;;;;18.77;11.68;;;;;;;;;;4951356;28;20051;-63
2021/10/01 15:05:40;;;;;;;15.60;10.60;;;;;;;;;;4951218;28;20079;-63
2021/10/01 15:08:06;;;;;;;16.95;10.18;;;;;;;;;;4951351;29;20071;-63
2021/10/01 15:10:32;;;;;;;17.98;10.60;;;;;;;;;;5014332;28;20507;-63
2021/10/01 15:12:58;;;;;;;15.88;10.20;;;;;;;;;;5037298;28;20117;-63
2021/10/01 15:15:27;;;;;;;18.10;10.93;;;;;;;;;;4970474;28;20022;-63
2021/10/01 15:17:53;;;;;;;17.60;10.07;;;;;;;;;;4967729;28;20034;-63
2021/10/01 15:20:19;;;;;;;17.23;10.00;;;;;;;;;;4967757;28;20035;-63
2021/10/01 15:22:45;;;;;;;16.42;10.45;;;;;;;;;;4951525;28;20035;-63
2021/10/01 15:25:12;;;;;;;14.60;10.15;;;;;;;;;;4950329;28;20019;-61
2021/10/01 15:27:38;;;;;;;17.50;10.63;;;;;;;;;;4951481;28;20019;-64
2021/10/01 15:30:04;;;;;;;14.80;10.13;;;;;;;;;;4625416;28;10000168;-62
2021/10/01 15:32:30;;;;;;;15.80;10.02;;;;;;;;;;5006864;28;20025;-62
2021/10/01 15:34:56;;;;;;;15.00;9.95;;;;;;;;;;4957187;28;20024;-62
2021/10/01 15:37:22;;;;;;;18.02;11.25;;;;;;;;;;4948121;28;20364;-62
2021/10/01 15:39:48;;;;;;;17.85;10.68;;;;;;;;;;4947126;28;20034;-62
2021/10/01 15:42:15;;;;;;;16.95;10.40;;;;;;;;;;5014000;28;20403;-62
2021/10/01 15:44:41;;;;;;;15.48;10.30;;;;;;;;;;5013533;28;20019;-63
2021/10/01 15:47:08;;;;;;;15.48;10.18;;;;;;;;;;5013454;28;20034;-63
2021/10/01 15:49:34;;;;;;;16.60;10.07;;;;;;;;;;4947519;28;20023;-62
2021/10/01 15:52:00;;;;;;;18.00;10.52;;;;;;;;;;5013252;28;20050;-62
2021/10/01 15:54:26;;;;;;;17.05;10.68;;;;;;;;;;4947263;28;20020;-62
2021/10/01 15:56:52;;;;;;;16.30;10.25;;;;;;;;;;5013171;28;20368;-62
2021/10/01 15:59:18;;;;;;;16.60;10.10;;;;;;;;;;5012404;28;20031;-62
2021/10/01 16:01:44;;;;;;;18.10;10.98;;;;;;;;;;4950905;29;20121;-64